Time;durP1;ratioP1;P1;durP2;ratioP2;P2;SDS_P1;SDS_P2;PMS_P1;PMS_P2;Temp;Humidity;BMP_temperature;BMP_pressure;BME280_temperature;BME280_humidity;BME280_pressure;Samples;Min_cycle;Max_cycle;Signal;HPM_P1;HPM_P2
2022/11/08 00:02:06;;;;;;;6.07;3.95;;;;;;;1.26;100.00;92978.69;2129658;27;20019;-72
2022/11/08 00:03:07;;;;;;;7.88;4.43;;;;;;;1.26;100.00;92985.84;2131247;27;20098;-72
2022/11/08 00:04:13;;;;;;;12.40;4.45;;;;;;;1.18;100.00;92985.00;2131619;27;20030;-72
2022/11/08 00:14:33;;;;;;;9.20;4.40;;;;;;;1.16;100.00;92979.34;2129487;27;20031;-72
2022/11/08 00:15:37;;;;;;;8.40;4.43;;;;;;;1.17;100.00;92980.84;2131370;27;20069;-72
2022/11/08 00:16:38;;;;;;;10.45;3.90;;;;;;;1.17;100.00;92980.09;2130777;27;20038;-71
2022/11/08 00:17:39;;;;;;;7.40;3.97;;;;;;;1.15;100.00;92974.44;2131199;27;20425;-71
2022/11/08 00:18:40;;;;;;;13.18;4.68;;;;;;;1.28;100.00;92982.84;2131472;27;20034;-72
2022/11/08 00:19:41;;;;;;;7.72;4.32;;;;;;;1.20;100.00;92982.78;2131597;27;20027;-72
2022/11/08 00:20:42;;;;;;;14.85;4.97;;;;;;;1.19;100.00;92975.25;2131590;27;20038;-71
2022/11/08 00:21:43;;;;;;;10.68;4.70;;;;;;;1.18;100.00;92976.34;2131553;27;20042;-73
2022/11/08 00:22:44;;;;;;;8.43;4.57;;;;;;;1.15;100.00;92969.94;2130841;27;20030;-71
2022/11/08 00:23:46;;;;;;;6.63;4.35;;;;;;;1.16;100.00;92971.44;2131332;27;20669;-72
2022/11/08 00:24:47;;;;;;;6.05;4.30;;;;;;;1.17;100.00;92972.19;2131440;27;20112;-72
2022/11/08 00:25:54;;;;;;;9.43;4.07;;;;;;;1.18;100.00;92969.19;2127186;27;20031;-72
2022/11/08 00:26:55;;;;;;;8.52;4.28;;;;;;;1.16;100.00;92973.31;2131058;27;20556;-72
2022/11/08 00:27:56;;;;;;;6.82;4.30;;;;;;;1.17;100.00;92972.94;2127805;27;20034;-72
2022/11/08 00:28:58;;;;;;;8.88;4.05;;;;;;;1.19;100.00;92980.50;2131412;27;20102;-72
2022/11/08 00:29:59;;;;;;;5.72;3.92;;;;;;;1.15;100.00;92969.94;2131256;27;20026;-72
2022/11/08 00:31:06;;;;;;;6.63;4.53;;;;;;;1.16;100.00;92966.19;2131335;27;20030;-73
2022/11/08 00:32:11;;;;;;;8.90;4.78;;;;;;;1.13;100.00;92959.00;2131206;27;20035;-73
2022/11/08 00:33:12;;;;;;;5.85;3.90;;;;;;;1.14;100.00;92967.63;2130417;27;20110;-72
2022/11/08 00:34:13;;;;;;;4.53;3.85;;;;;;;1.20;100.00;92963.59;2131351;27;20925;-71
2022/11/08 00:35:14;;;;;;;6.00;3.95;;;;;;;1.17;100.00;92966.94;2131398;27;20469;-72
2022/11/08 00:36:15;;;;;;;8.80;4.22;;;;;;;1.16;100.00;92970.69;2130790;27;20034;-72
2022/11/08 00:37:18;;;;;;;7.35;3.92;;;;;;;1.13;100.00;92974.78;2131169;27;20099;-72
2022/11/08 00:38:19;;;;;;;6.60;4.07;;;;;;;1.06;100.00;92966.06;2126700;27;20027;-72
2022/11/08 00:39:20;;;;;;;6.68;4.45;;;;;;;1.03;100.00;92966.78;2131361;27;20453;-72
2022/11/08 00:40:21;;;;;;;8.75;4.18;;;;;;;1.11;100.00;92971.00;2131218;27;20023;-73
2022/11/08 00:41:22;;;;;;;7.40;4.40;;;;;;;1.12;100.00;92962.75;2131307;27;20022;-73
2022/11/08 00:42:22;;;;;;;10.93;5.28;;;;;;;1.05;100.00;92967.16;2131189;27;20095;-73
2022/11/08 00:43:23;;;;;;;5.32;3.95;;;;;;;1.04;100.00;92965.66;2130477;27;20023;-72
2022/11/08 00:44:24;;;;;;;9.60;3.85;;;;;;;1.10;100.00;92961.56;2131198;27;20027;-72
2022/11/08 00:45:25;;;;;;;5.40;4.05;;;;;;;1.05;100.00;92962.66;2131252;27;20143;-72
2022/11/08 00:46:26;;;;;;;8.60;4.65;;;;;;;1.08;100.00;92964.56;2131062;27;20039;-73
2022/11/08 00:47:27;;;;;;;6.15;3.83;;;;;;;1.02;100.00;92963.41;2131393;27;20105;-73
2022/11/08 00:48:28;;;;;;;8.82;3.97;;;;;;;1.04;100.00;92965.66;2121750;27;20035;-72
2022/11/08 00:49:29;;;;;;;6.03;3.85;;;;;;;1.12;100.00;92969.88;2121474;27;20030;-72
2022/11/08 00:50:30;;;;;;;5.50;4.00;;;;;;;1.12;100.00;92975.91;2131275;27;20015;-72
2022/11/08 00:51:31;;;;;;;7.10;3.72;;;;;;;1.11;100.00;92968.38;2131207;27;20030;-72
2022/11/08 00:52:32;;;;;;;12.57;3.90;;;;;;;1.08;100.00;92967.22;2131127;27;20028;-72
2022/11/08 00:53:36;;;;;;;7.93;4.05;;;;;;;1.05;100.00;92970.56;2131084;27;20384;-72
2022/11/08 00:54:37;;;;;;;5.70;3.63;;;;;;;1.02;100.00;92963.41;2130582;27;20495;-72
2022/11/08 00:55:38;;;;;;;7.32;3.78;;;;;;;1.03;100.00;92962.28;2130835;27;20041;-72
2022/11/08 00:56:39;;;;;;;8.52;3.97;;;;;;;1.07;100.00;92959.69;2129908;27;20038;-72
2022/11/08 00:57:40;;;;;;;6.18;4.18;;;;;;;1.06;100.00;92956.28;2131319;27;20030;-72
2022/11/08 00:58:42;;;;;;;7.20;3.80;;;;;;;1.08;100.00;92958.56;2131184;27;20031;-72
2022/11/08 00:59:43;;;;;;;7.13;3.63;;;;;;;1.03;100.00;92958.88;2129095;27;20468;-72
2022/11/08 01:00:44;;;;;;;7.85;3.38;;;;;;;0.99;100.00;92970.13;2131170;27;20030;-72
2022/11/08 01:01:46;;;;;;;5.10;3.53;;;;;;;1.04;100.00;92960.41;2131031;27;20084;-72
2022/11/08 01:02:47;;;;;;;4.13;3.50;;;;;;;1.04;100.00;92953.25;2126922;27;20046;-72
2022/11/08 01:03:49;;;;;;;7.68;3.67;;;;;;;1.05;100.00;92951.38;2131033;27;20034;-72
2022/11/08 01:04:49;;;;;;;11.00;3.67;;;;;;;0.98;100.00;92954.69;2130438;27;20087;-72
2022/11/08 01:05:53;;;;;;;8.50;3.83;;;;;;;1.01;100.00;92956.63;2130710;27;20126;-72
2022/11/08 01:06:54;;;;;;;4.70;3.60;;;;;;;0.96;100.00;92959.53;2131119;27;20441;-72
2022/11/08 01:07:55;;;;;;;10.27;3.78;;;;;;;0.98;100.00;92952.06;2131104;27;20039;-72
2022/11/08 01:08:57;;;;;;;5.05;3.40;;;;;;;0.97;100.00;92950.56;2131127;27;20114;-72
2022/11/08 01:09:58;;;;;;;7.85;3.65;;;;;;;0.97;100.00;92950.56;2130466;27;20064;-72
2022/11/08 01:11:03;;;;;;;4.95;3.35;;;;;;;0.95;100.00;92943.00;2130960;27;20097;-72
2022/11/08 01:12:04;;;;;;;8.48;3.70;;;;;;;0.97;100.00;92946.03;2130944;27;20037;-72
2022/11/08 01:13:05;;;;;;;5.40;3.47;;;;;;;0.92;100.00;92942.97;2130960;27;20105;-72
2022/11/08 01:14:06;;;;;;;7.15;3.75;;;;;;;0.94;100.00;92948.63;2130937;27;20034;-72
2022/11/08 01:15:07;;;;;;;5.78;3.55;;;;;;;0.97;100.00;92948.69;2130187;27;20041;-72
2022/11/08 01:16:20;;;;;;;5.28;3.13;;;;;;;0.94;100.00;92944.13;2130488;27;20083;-72
2022/11/08 01:17:21;;;;;;;12.30;3.40;;;;;;;0.93;100.00;92942.63;2127325;27;20448;-72
2022/11/08 01:18:22;;;;;;;8.48;3.45;;;;;;;0.94;100.00;92944.13;2130951;27;20035;-72
2022/11/08 01:19:23;;;;;;;8.65;3.47;;;;;;;0.92;100.00;92935.84;2130857;27;20070;-72
2022/11/08 01:20:24;;;;;;;6.07;3.13;;;;;;;0.94;100.00;92941.50;2130204;27;20037;-72
2022/11/08 01:21:26;;;;;;;6.80;4.13;;;;;;;0.97;100.00;92935.53;2131016;27;20030;-72
2022/11/08 01:22:27;;;;;;;9.02;3.92;;;;;;;0.92;100.00;92933.22;2130973;27;20061;-72
2022/11/08 01:23:28;;;;;;;7.45;4.05;;;;;;;0.96;100.00;92936.63;2121797;27;20034;-73
2022/11/08 01:24:29;;;;;;;6.82;4.13;;;;;;;1.11;100.00;92942.06;2121672;27;20034;-72
2022/11/08 01:25:30;;;;;;;7.15;3.85;;;;;;;1.06;100.00;92940.50;2130153;27;20027;-72
2022/11/08 01:26:31;;;;;;;7.35;3.83;;;;;;;1.07;100.00;92942.00;2130633;27;20033;-72
2022/11/08 01:27:32;;;;;;;7.50;4.28;;;;;;;1.05;100.00;92946.13;2130924;27;20038;-72
2022/11/08 01:28:34;;;;;;;11.38;4.60;;;;;;;1.08;100.00;92935.63;2130958;27;20026;-72
2022/11/08 01:29:35;;;;;;;7.57;4.22;;;;;;;1.08;100.00;92942.78;2130676;27;20053;-73
2022/11/08 01:30:38;;;;;;;12.45;4.53;;;;;;;1.09;100.00;92939.75;2130103;27;20451;-73
2022/11/08 01:31:39;;;;;;;10.50;5.15;;;;;;;1.10;100.00;92932.63;2130763;27;20079;-72
2022/11/08 01:32:40;;;;;;;11.27;4.47;;;;;;;1.11;100.00;92934.16;2130886;27;20038;-72
2022/11/08 01:33:41;;;;;;;8.48;4.78;;;;;;;1.14;100.00;92930.78;2131010;27;20064;-72
2022/11/08 01:34:42;;;;;;;7.55;4.03;;;;;;;1.14;100.00;92930.78;2130770;27;20453;-73
2022/11/08 01:35:44;;;;;;;8.73;4.35;;;;;;;1.08;100.00;92925.09;2130614;27;20034;-72
2022/11/08 01:36:45;;;;;;;6.78;4.40;;;;;;;0.99;100.00;92922.00;2130618;27;20038;-72
2022/11/08 01:37:46;;;;;;;11.35;4.53;;;;;;;1.00;100.00;92926.13;2131118;27;20469;-73
2022/11/08 01:38:48;;;;;;;7.03;4.50;;;;;;;1.03;100.00;92924.66;2122650;27;20057;-72
2022/11/08 01:39:49;;;;;;;6.63;3.80;;;;;;;1.03;100.00;92928.06;2130884;27;20476;-72
2022/11/08 01:40:49;;;;;;;9.75;4.05;;;;;;;1.04;100.00;92923.56;2130099;27;20037;-72
2022/11/08 01:41:50;;;;;;;8.43;4.28;;;;;;;1.05;100.00;92917.16;2130979;27;20105;-72
2022/11/08 01:42:52;;;;;;;7.57;4.38;;;;;;;1.06;100.00;92921.31;2121759;27;20035;-73
2022/11/08 01:43:55;;;;;;;6.35;3.97;;;;;;;1.10;100.00;92922.09;2121953;27;20037;-72
2022/11/08 01:45:01;;;;;;;5.65;3.88;;;;;;;1.09;100.00;92920.59;2130808;27;20058;-72
2022/11/08 01:46:08;;;;;;;6.75;4.03;;;;;;;1.05;100.00;92925.06;2129829;27;20054;-72
2022/11/08 01:47:09;;;;;;;6.97;3.70;;;;;;;1.06;100.00;92919.44;2131090;27;20030;-72
2022/11/08 01:48:10;;;;;;;5.10;3.58;;;;;;;1.03;100.00;92914.91;2130258;27;20043;-72
2022/11/08 01:49:32;;;;;;;4.20;3.72;;;;;;;0.93;100.00;92920.81;2130599;27;20034;-72
2022/11/08 01:50:33;;;;;;;4.82;3.33;;;;;;;0.87;100.00;92920.34;2128514;27;20023;-73
2022/11/08 01:51:46;;;;;;;6.68;3.83;;;;;;;0.79;100.00;92908.25;2128995;27;20022;-72
2022/11/08 01:52:52;;;;;;;6.68;3.83;;;;;;;0.79;100.00;92916.16;2126603;27;20038;-72
2022/11/08 01:53:55;;;;;;;7.28;3.78;;;;;;;0.75;100.00;92907.47;2130790;27;20035;-72
2022/11/08 01:55:04;;;;;;;4.88;3.50;;;;;;;0.74;100.00;92905.91;2130803;27;20034;-72
2022/11/08 01:56:06;;;;;;;6.60;3.78;;;;;;;0.70;100.00;92902.50;2130262;27;20031;-72
2022/11/08 01:57:12;;;;;;;4.95;3.92;;;;;;;0.65;100.00;92902.81;2129894;27;20074;-73
2022/11/08 01:58:18;;;;;;;6.13;3.50;;;;;;;0.61;100.00;92908.03;2130590;27;20061;-73
2022/11/08 01:59:20;;;;;;;9.20;4.32;;;;;;;0.63;100.00;92905.81;2126664;27;20476;-72
2022/11/08 02:00:21;;;;;;;4.30;3.75;;;;;;;0.67;100.00;92898.72;2130682;27;20022;-72
2022/11/08 02:01:22;;;;;;;5.55;3.80;;;;;;;0.66;100.00;92899.84;2130574;27;20430;-72
2022/11/08 02:02:23;;;;;;;6.82;3.50;;;;;;;0.66;100.00;92901.69;2130238;27;20030;-72
2022/11/08 02:03:24;;;;;;;8.18;4.28;;;;;;;0.63;100.00;92895.28;2130605;27;20030;-73
2022/11/08 02:04:25;;;;;;;5.70;3.80;;;;;;;0.69;100.00;92896.47;2130370;27;20460;-73
2022/11/08 02:05:29;;;;;;;4.82;3.60;;;;;;;0.70;100.00;92902.50;2130503;27;20360;-72
2022/11/08 02:06:34;;;;;;;5.90;3.88;;;;;;;0.62;100.00;92899.03;2130242;27;20019;-73
2022/11/08 02:07:35;;;;;;;7.75;4.03;;;;;;;0.63;100.00;92899.78;2129451;27;20511;-72
2022/11/08 02:08:41;;;;;;;6.82;3.65;;;;;;;0.57;100.00;92888.84;2130554;27;20031;-72
2022/11/08 02:09:45;;;;;;;4.25;3.42;;;;;;;0.66;100.00;92899.06;2129970;27;20121;-73
2022/11/08 02:10:49;;;;;;;6.53;3.65;;;;;;;0.57;100.00;92891.47;2130492;27;20109;-73
2022/11/08 02:11:52;;;;;;;7.63;3.63;;;;;;;0.50;100.00;92894.75;2130481;27;20018;-73
2022/11/08 02:12:54;;;;;;;5.35;3.60;;;;;;;0.43;100.00;92897.28;2129720;27;20038;-73
2022/11/08 02:13:55;;;;;;;5.03;3.70;;;;;;;0.41;100.00;92894.28;2130638;27;20038;-73
2022/11/08 02:16:26;;;;;;;;;;;;;;;0.35;100.00;92885.19;2145511;27;20543;-73
2022/11/08 02:17:27;;;;;;;5.20;3.15;;;;;;;0.33;100.00;92878.78;2138033;27;19918;-73
2022/11/08 02:18:31;;;;;;;8.40;4.35;;;;;;;0.29;100.00;92878.72;2136441;27;20054;-74
2022/11/08 02:19:41;;;;;;;6.30;3.60;;;;;;;0.32;100.00;92883.28;2137882;27;20040;-73
2022/11/08 02:21:08;;;;;;;7.40;3.58;;;;;;;0.34;100.00;92881.03;2137843;27;20034;-73
2022/11/08 02:22:28;;;;;;;7.15;3.97;;;;;;;0.37;100.00;92877.69;2136786;27;20084;-74
2022/11/08 02:23:38;;;;;;;;;;;;;;;0.34;100.00;92878.41;2124987;27;20369;-74
2022/11/08 02:24:39;;;;;;;5.65;3.40;;;;;;;0.29;100.00;92870.84;2126807;27;19961;-73
2022/11/08 02:25:40;;;;;;;6.07;2.95;;;;;;;0.36;100.00;92876.19;2137966;27;20058;-73
2022/11/08 02:26:44;;;;;;;4.72;3.03;;;;;;;0.36;100.00;92881.44;2137669;27;20027;-73
2022/11/08 02:27:45;;;;;;;4.43;3.38;;;;;;;0.31;100.00;92876.50;2138104;27;20031;-73
2022/11/08 02:28:47;;;;;;;7.70;3.20;;;;;;;0.28;100.00;92871.94;2137268;27;20034;-73
2022/11/08 02:29:51;;;;;;;4.00;3.03;;;;;;;0.21;100.00;92869.22;2133707;27;20089;-73
2022/11/08 02:30:53;;;;;;;5.65;3.20;;;;;;;0.37;100.00;92866.44;2137920;27;20031;-73
2022/11/08 02:31:55;;;;;;;4.47;3.05;;;;;;;0.37;100.00;92863.81;2138128;27;20109;-73
2022/11/08 02:32:56;;;;;;;6.90;3.60;;;;;;;0.32;100.00;92864.88;2137844;27;20031;-74
2022/11/08 02:33:58;;;;;;;5.78;2.80;;;;;;;0.19;100.00;92869.59;2137027;27;20098;-73
2022/11/08 02:35:00;;;;;;;4.97;2.85;;;;;;;0.30;100.00;92868.97;2137992;27;20400;-73
2022/11/08 02:36:03;;;;;;;5.03;2.80;;;;;;;0.25;100.00;92864.78;2137507;27;20037;-73
2022/11/08 02:37:05;;;;;;;4.40;3.10;;;;;;;0.18;100.00;92857.56;2137835;27;20057;-73
2022/11/08 02:38:06;;;;;;;6.57;3.38;;;;;;;0.25;100.00;92868.16;2137784;27;20045;-73
2022/11/08 02:39:07;;;;;;;7.35;3.53;;;;;;;0.23;100.00;92861.75;2137239;27;20360;-73
2022/11/08 02:40:08;;;;;;;4.75;3.28;;;;;;;0.15;100.00;92862.78;2137948;27;20050;-73
2022/11/08 02:41:09;;;;;;;4.57;2.80;;;;;;;0.08;100.00;92867.94;2137907;27;20032;-73
2022/11/08 02:42:17;;;;;;;3.88;3.08;;;;;;;0.05;100.00;92863.41;2134529;27;20056;-73
2022/11/08 02:43:19;;;;;;;4.50;2.90;;;;;;;0.05;100.00;92866.03;2133776;27;20345;-73
2022/11/08 02:44:20;;;;;;;6.70;2.80;;;;;;;0.03;100.00;92855.09;2137058;27;20026;-73
2022/11/08 02:45:21;;;;;;;5.20;3.17;;;;;;;0.05;100.00;92856.28;2138024;27;20079;-73
2022/11/08 02:46:22;;;;;;;6.68;3.05;;;;;;;0.18;100.00;92856.81;2137478;27;20034;-72
2022/11/08 02:47:23;;;;;;;4.72;3.45;;;;;;;0.14;100.00;92859.38;2138106;27;20186;-73
2022/11/08 02:48:24;;;;;;;5.40;3.30;;;;;;;0.10;100.00;92855.97;2137855;27;20046;-73
2022/11/08 02:49:25;;;;;;;5.97;3.28;;;;;;;0.08;100.00;92852.91;2137048;27;20022;-73
2022/11/08 02:50:26;;;;;;;4.10;2.97;;;;;;;0.08;100.00;92849.53;2137794;27;20372;-72
2022/11/08 02:51:27;;;;;;;5.90;2.83;;;;;;;0.02;100.00;92854.34;2137810;27;20136;-72
2022/11/08 02:52:28;;;;;;;4.60;3.03;;;;;;;0.03;100.00;92855.09;2137790;27;20026;-73
2022/11/08 02:53:29;;;;;;;6.95;3.47;;;;;;;0.02;100.00;92859.59;2137842;27;20026;-73
2022/11/08 02:54:30;;;;;;;5.60;3.75;;;;;;;0.03;100.00;92853.22;2137695;27;20049;-73
2022/11/08 02:55:33;;;;;;;5.78;3.00;;;;;;;0.07;100.00;92853.28;2135513;27;20400;-73
2022/11/08 02:56:34;;;;;;;4.90;3.10;;;;;;;0.04;100.00;92854.72;2137411;27;20126;-73
2022/11/08 02:57:35;;;;;;;3.58;2.78;;;;;;;-0.01;100.00;92857.66;2137783;27;20041;-73
2022/11/08 02:58:36;;;;;;;4.85;3.38;;;;;;;0.05;100.00;92853.66;2137887;27;20475;-73
2022/11/08 02:59:37;;;;;;;6.60;3.40;;;;;;;0.08;100.00;92854.78;2137333;27;20440;-73
2022/11/08 03:00:38;;;;;;;8.00;3.20;;;;;;;-0.02;100.00;92854.28;2137091;27;20034;-73
2022/11/08 03:01:39;;;;;;;6.55;3.22;;;;;;;-0.05;100.00;92851.63;2137683;27;20034;-73
2022/11/08 03:02:40;;;;;;;6.57;3.22;;;;;;;-0.08;100.00;92853.09;2137732;27;20449;-73
2022/11/08 03:03:41;;;;;;;5.65;3.28;;;;;;;-0.06;100.00;92861.38;2137810;27;20037;-73
2022/11/08 03:04:42;;;;;;;4.55;3.15;;;;;;;-0.05;100.00;92847.13;2137469;27;20054;-73
2022/11/08 03:05:43;;;;;;;3.72;2.83;;;;;;;-0.03;100.00;92858.03;2137260;27;20372;-73
2022/11/08 03:06:44;;;;;;;5.18;3.17;;;;;;;-0.09;100.00;92858.69;2137313;27;20038;-73
2022/11/08 03:07:46;;;;;;;3.63;2.92;;;;;;;-0.05;100.00;92857.63;2137542;27;20046;-73
2022/11/08 03:08:47;;;;;;;8.52;3.15;;;;;;;-0.08;100.00;92854.97;2137650;27;20035;-73
2022/11/08 03:09:48;;;;;;;4.80;2.80;;;;;;;-0.09;100.00;92859.47;2133338;27;20033;-72
2022/11/08 03:10:49;;;;;;;7.20;3.20;;;;;;;-0.08;100.00;92855.72;2136984;27;20472;-73
2022/11/08 03:11:49;;;;;;;4.13;3.13;;;;;;;-0.04;100.00;92853.16;2137702;27;20034;-73
2022/11/08 03:13:02;;;;;;;8.05;3.42;;;;;;;-0.12;100.00;92856.78;2137542;27;20027;-73
2022/11/08 03:14:03;;;;;;;9.15;3.35;;;;;;;-0.03;100.00;92858.03;2137689;27;20026;-73
2022/11/08 03:15:06;;;;;;;4.50;2.80;;;;;;;-0.07;100.00;92862.47;2137727;27;20117;-72
2022/11/08 03:16:07;;;;;;;4.88;3.08;;;;;;;-0.08;100.00;92857.59;2136615;27;21690;-72
2022/11/08 03:17:08;;;;;;;7.95;3.38;;;;;;;-0.02;100.00;92856.91;2137522;27;20105;-72
2022/11/08 03:18:09;;;;;;;5.18;3.55;;;;;;;-0.06;100.00;92850.84;2137618;27;20018;-73
2022/11/08 03:19:11;;;;;;;5.13;3.03;;;;;;;-0.06;100.00;92850.84;2137505;27;20025;-72
2022/11/08 03:20:11;;;;;;;6.13;3.13;;;;;;;-0.11;100.00;92856.41;2137557;27;20022;-72
2022/11/08 03:21:12;;;;;;;5.32;3.10;;;;;;;-0.11;100.00;92851.16;2136818;27;20476;-73
2022/11/08 03:22:14;;;;;;;4.10;2.80;;;;;;;-0.16;100.00;92850.72;2137506;27;20121;-72
2022/11/08 03:23:15;;;;;;;4.68;3.40;;;;;;;-0.10;100.00;92851.91;2137642;27;20030;-72
2022/11/08 03:24:16;;;;;;;5.72;3.00;;;;;;;-0.10;100.00;92857.94;2137630;27;20068;-72
2022/11/08 03:25:17;;;;;;;6.88;3.78;;;;;;;-0.04;100.00;92850.53;2137710;27;20109;-72
2022/11/08 03:26:18;;;;;;;10.13;3.75;;;;;;;-0.13;100.00;92852.63;2135304;27;20019;-72
2022/11/08 03:27:19;;;;;;;4.47;2.92;;;;;;;-0.05;100.00;92846.34;2134718;27;20027;-72
2022/11/08 03:28:20;;;;;;;4.80;3.30;;;;;;;-0.09;100.00;92841.06;2131866;27;20023;-71
2022/11/08 03:29:21;;;;;;;6.13;3.10;;;;;;;-0.08;100.00;92850.47;2131815;27;20022;-72
2022/11/08 03:30:22;;;;;;;3.75;2.92;;;;;;;-0.13;100.00;92847.38;2131859;27;20041;-71
2022/11/08 03:31:23;;;;;;;5.00;3.30;;;;;;;-0.18;100.00;92851.06;2131037;27;20499;-72
2022/11/08 03:32:24;;;;;;;7.15;3.13;;;;;;;-0.17;100.00;92851.84;2122335;27;20513;-71
2022/11/08 03:33:25;;;;;;;5.68;3.05;;;;;;;-0.19;100.00;92846.91;2122762;27;20027;-72
2022/11/08 03:34:26;;;;;;;4.72;2.90;;;;;;;-0.17;100.00;92852.59;2131755;27;20041;-72
2022/11/08 03:35:27;;;;;;;3.35;2.65;;;;;;;-0.17;100.00;92846.59;2131629;27;20025;-72
2022/11/08 03:36:28;;;;;;;3.28;2.78;;;;;;;-0.18;100.00;92842.41;2130695;27;20019;-72
2022/11/08 03:37:29;;;;;;;3.70;2.78;;;;;;;-0.19;100.00;92843.53;2131663;27;20038;-72
2022/11/08 03:38:30;;;;;;;6.00;3.22;;;;;;;-0.17;100.00;92846.59;2131755;27;20353;-72
2022/11/08 03:39:31;;;;;;;6.07;3.00;;;;;;;-0.13;100.00;92842.13;2131735;27;20513;-72
2022/11/08 03:40:32;;;;;;;5.78;3.10;;;;;;;-0.15;100.00;92844.34;2131690;27;20038;-72
2022/11/08 03:41:33;;;;;;;4.00;2.78;;;;;;;-0.19;100.00;92840.91;2130982;27;20042;-72
2022/11/08 03:42:34;;;;;;;7.53;3.45;;;;;;;-0.25;100.00;92848.34;2131859;27;20034;-72
2022/11/08 03:43:35;;;;;;;6.30;3.47;;;;;;;-0.23;100.00;92848.75;2131590;27;20026;-72
2022/11/08 03:44:36;;;;;;;3.30;2.70;;;;;;;-0.23;100.00;92848.00;2131712;27;20023;-72
2022/11/08 03:45:36;;;;;;;5.03;2.70;;;;;;;-0.23;100.00;92848.75;2131813;27;20022;-72
2022/11/08 03:46:37;;;;;;;3.60;2.85;;;;;;;-0.21;100.00;92851.03;2130660;27;20034;-72
2022/11/08 03:47:41;;;;;;;5.60;3.35;;;;;;;-0.21;100.00;92851.78;2131694;27;20125;-72
2022/11/08 03:48:42;;;;;;;7.07;3.28;;;;;;;-0.25;100.00;92850.97;2131585;27;20034;-72
2022/11/08 03:49:42;;;;;;;3.40;3.00;;;;;;;-0.24;100.00;92839.34;2131498;27;20114;-72
2022/11/08 03:50:44;;;;;;;6.22;3.05;;;;;;;-0.22;100.00;92847.66;2131682;27;20401;-72
2022/11/08 03:51:45;;;;;;;3.47;3.00;;;;;;;-0.28;100.00;92847.19;2130876;27;20408;-72
2022/11/08 03:52:51;;;;;;;5.18;3.03;;;;;;;-0.19;100.00;92841.66;2131724;27;20049;-72
2022/11/08 03:53:52;;;;;;;4.20;2.78;;;;;;;-0.27;100.00;92840.81;2128026;27;20030;-72
2022/11/08 03:54:53;;;;;;;6.20;3.20;;;;;;;-0.24;100.00;92841.22;2131479;27;20026;-72
2022/11/08 03:55:54;;;;;;;5.47;3.50;;;;;;;-0.20;100.00;92839.41;2131344;27;20062;-72
2022/11/08 03:56:55;;;;;;;5.47;3.70;;;;;;;-0.11;100.00;92838.03;2130858;27;20027;-72
2022/11/08 03:57:56;;;;;;;4.55;3.00;;;;;;;-0.11;100.00;92838.03;2131568;27;20602;-72
2022/11/08 03:58:57;;;;;;;6.00;3.05;;;;;;;-0.09;100.00;92833.19;2131492;27;20022;-73
2022/11/08 03:59:58;;;;;;;7.93;3.42;;;;;;;-0.11;100.00;92840.66;2131431;27;20101;-73
2022/11/08 04:01:03;;;;;;;4.28;2.80;;;;;;;-0.08;100.00;92829.44;2131632;27;20031;-72
2022/11/08 04:02:04;;;;;;;5.32;3.38;;;;;;;-0.11;100.00;92835.41;2129847;27;20451;-72
2022/11/08 04:03:05;;;;;;;4.05;3.03;;;;;;;-0.06;100.00;92832.47;2129750;27;20027;-72
2022/11/08 04:04:06;;;;;;;6.40;3.53;;;;;;;-0.05;100.00;92833.97;2131499;27;20456;-72
2022/11/08 04:05:09;;;;;;;5.25;2.90;;;;;;;-0.05;100.00;92838.47;2131540;27;20162;-72
2022/11/08 04:06:10;;;;;;;4.07;2.70;;;;;;;-0.04;100.00;92834.75;2131240;27;20034;-72
2022/11/08 04:07:11;;;;;;;6.05;3.17;;;;;;;0.04;100.00;92838.22;2130864;27;20099;-72
2022/11/08 04:08:12;;;;;;;8.02;2.97;;;;;;;-0.05;100.00;92838.47;2130761;27;20033;-72
2022/11/08 04:09:13;;;;;;;4.13;3.33;;;;;;;-0.07;100.00;92849.34;2131305;27;20376;-72
2022/11/08 04:10:16;;;;;;;6.55;3.25;;;;;;;0.00;100.00;92835.56;2131445;27;20037;-72
2022/11/08 04:15:21;;;;;;;8.77;4.03;;;;;;;0.13;100.00;92834.22;2127279;27;20437;-72
2022/11/08 04:16:22;;;;;;;11.38;4.00;;;;;;;0.18;100.00;92833.16;2130851;27;20045;-71
2022/11/08 04:21:17;;;;;;;6.97;3.90;;;;;;;0.25;100.00;92833.97;2131540;27;20026;-72
2022/11/08 04:21:24;;;;;;;6.15;3.60;;;;;;;0.41;100.00;92827.78;2128112;27;20034;-72
2022/11/08 04:22:25;;;;;;;7.35;3.90;;;;;;;0.42;100.00;92829.31;2131565;27;20026;-72
2022/11/08 04:23:27;;;;;;;5.47;4.00;;;;;;;0.41;100.00;92831.19;2131064;27;20050;-72
2022/11/08 04:24:27;;;;;;;8.80;4.18;;;;;;;0.42;100.00;92826.69;2131177;27;20023;-71
2022/11/08 04:25:28;;;;;;;8.25;4.40;;;;;;;0.46;100.00;92830.09;2131479;27;20050;-72
2022/11/08 04:26:29;;;;;;;9.32;4.10;;;;;;;0.42;100.00;92818.78;2131278;27;20044;-72
2022/11/08 04:27:30;;;;;;;7.47;4.18;;;;;;;0.50;100.00;92821.13;2131378;27;20741;-72
2022/11/08 04:28:34;;;;;;;8.00;4.28;;;;;;;0.47;100.00;92813.97;2130689;27;20030;-71
2022/11/08 04:29:35;;;;;;;8.30;4.95;;;;;;;0.39;100.00;92817.63;2131302;27;20046;-72
2022/11/08 04:30:36;;;;;;;9.90;4.07;;;;;;;0.49;100.00;92808.34;2131435;27;20046;-72
2022/11/08 04:31:38;;;;;;;10.93;4.45;;;;;;;0.50;100.00;92815.88;2131261;27;20034;-72
2022/11/08 04:32:39;;;;;;;9.60;4.75;;;;;;;0.42;100.00;92810.91;2131436;27;20033;-72
2022/11/08 04:33:40;;;;;;;8.55;4.15;;;;;;;0.45;100.00;92816.19;2130526;27;20760;-72
2022/11/08 04:34:41;;;;;;;6.32;4.20;;;;;;;0.46;100.00;92814.31;2131204;27;20039;-72
2022/11/08 04:35:42;;;;;;;7.82;5.00;;;;;;;0.46;100.00;92809.81;2131329;27;20062;-72
2022/11/08 04:36:43;;;;;;;9.07;4.88;;;;;;;0.46;100.00;92815.06;2130924;27;20038;-72
2022/11/08 04:37:44;;;;;;;9.13;4.60;;;;;;;0.46;100.00;92817.72;2131179;27;20133;-72
2022/11/08 04:38:50;;;;;;;6.85;3.97;;;;;;;0.62;100.00;92814.88;2126926;27;20449;-72
2022/11/08 04:39:51;;;;;;;8.50;4.68;;;;;;;0.62;100.00;92814.13;2122631;27;20110;-72
2022/11/08 04:40:52;;;;;;;11.13;4.45;;;;;;;0.57;100.00;92815.22;2131256;27;20094;-72
2022/11/08 04:41:53;;;;;;;9.10;4.40;;;;;;;0.64;100.00;92810.00;2131177;27;20824;-72
2022/11/08 04:42:54;;;;;;;10.85;4.28;;;;;;;0.61;100.00;92815.22;2131387;27;20070;-72
2022/11/08 04:43:56;;;;;;;12.20;4.22;;;;;;;0.60;100.00;92809.22;2130345;27;20022;-72
2022/11/08 04:44:57;;;;;;;6.60;4.10;;;;;;;0.65;100.00;92811.50;2131075;27;20031;-71
2022/11/08 04:46:01;;;;;;;9.82;4.50;;;;;;;0.56;100.00;92810.28;2130730;27;20163;-72
2022/11/08 04:47:02;;;;;;;5.50;4.20;;;;;;;0.62;100.00;92822.03;2131285;27;20031;-72
2022/11/08 04:48:03;;;;;;;7.70;4.40;;;;;;;0.63;100.00;92813.75;2131291;27;20109;-71
2022/11/08 04:49:04;;;;;;;12.65;5.70;;;;;;;0.63;100.00;92810.38;2130386;27;20027;-72
2022/11/08 04:50:05;;;;;;;15.32;7.72;;;;;;;0.59;100.00;92806.97;2131055;27;20022;-72
2022/11/08 04:51:18;;;;;;;14.57;6.10;;;;;;;0.54;100.00;92820.44;2131236;27;20023;-72
2022/11/08 04:52:19;;;;;;;8.98;5.40;;;;;;;0.54;100.00;92810.66;2127209;27;20030;-72
2022/11/08 04:53:21;;;;;;;8.25;4.22;;;;;;;0.50;100.00;92812.50;2131257;27;20038;-72
2022/11/08 04:54:22;;;;;;;9.23;4.78;;;;;;;0.45;100.00;92803.06;2127656;27;20023;-71
2022/11/08 04:55:23;;;;;;;6.07;4.00;;;;;;;0.46;100.00;92804.56;2130990;27;20075;-72
2022/11/08 04:56:25;;;;;;;6.55;4.70;;;;;;;0.42;100.00;92805.63;2130683;27;20030;-72
2022/11/08 04:57:27;;;;;;;13.43;4.20;;;;;;;0.42;100.00;92809.03;2131171;27;20026;-72
2022/11/08 04:58:33;;;;;;;8.73;4.43;;;;;;;0.40;100.00;92806.00;2131197;27;20042;-72
2022/11/08 04:59:34;;;;;;;9.30;3.72;;;;;;;0.29;100.00;92805.13;2128839;27;20031;-72
2022/11/08 05:00:35;;;;;;;10.27;4.20;;;;;;;0.25;100.00;92797.19;2130462;27;20030;-72
2022/11/08 05:01:36;;;;;;;8.40;4.63;;;;;;;0.25;100.00;92805.06;2130624;27;20027;-72
2022/11/08 05:02:37;;;;;;;5.20;4.10;;;;;;;0.23;100.00;92804.69;2131204;27;20042;-72
2022/11/08 05:03:38;;;;;;;8.65;4.13;;;;;;;0.25;100.00;92801.69;2131182;27;20027;-72
2022/11/08 05:04:39;;;;;;;5.72;4.10;;;;;;;0.19;100.00;92798.63;2121193;27;20110;-72
2022/11/08 05:05:39;;;;;;;7.25;4.10;;;;;;;0.22;100.00;92800.56;2121868;27;20031;-72
2022/11/08 05:06:40;;;;;;;8.18;4.13;;;;;;;0.17;100.00;92798.22;2130865;27;20044;-72
2022/11/08 05:07:41;;;;;;;5.60;3.88;;;;;;;0.18;100.00;92791.88;2131124;27;20074;-72
2022/11/08 05:08:42;;;;;;;8.02;4.20;;;;;;;0.11;100.00;92797.03;2131218;27;20030;-72
2022/11/08 05:09:43;;;;;;;4.35;3.95;;;;;;;0.19;100.00;92793.38;2130596;27;20034;-72
2022/11/08 05:10:44;;;;;;;7.65;4.18;;;;;;;0.16;100.00;92794.09;2131097;27;20034;-71